sensor_id;sensor_type;location;lat;lon;timestamp;temperature;humidity
33988;DHT22;37428;53.580;-1.666;2022-09-29T00:00:13;10.70;96.10
33988;DHT22;37428;53.580;-1.666;2022-09-29T00:03:17;10.70;96.20
33988;DHT22;37428;53.580;-1.666;2022-09-29T00:06:19;10.70;95.80
33988;DHT22;37428;53.580;-1.666;2022-09-29T00:09:27;10.80;96.00
33988;DHT22;37428;53.580;-1.666;2022-09-29T00:12:30;10.70;96.20
33988;DHT22;37428;53.580;-1.666;2022-09-29T00:15:32;10.70;96.30
33988;DHT22;37428;53.580;-1.666;2022-09-29T00:18:35;10.80;96.70
33988;DHT22;37428;53.580;-1.666;2022-09-29T00:21:37;10.70;96.40
33988;DHT22;37428;53.580;-1.666;2022-09-29T00:24:41;10.70;96.90
33988;DHT22;37428;53.580;-1.666;2022-09-29T00:27:43;10.70;97.40
33988;DHT22;37428;53.580;-1.666;2022-09-29T00:30:45;10.70;97.30
33988;DHT22;37428;53.580;-1.666;2022-09-29T00:33:49;10.70;97.70
33988;DHT22;37428;53.580;-1.666;2022-09-29T00:36:51;10.70;97.40
33988;DHT22;37428;53.580;-1.666;2022-09-29T00:40:01;10.70;97.20
33988;DHT22;37428;53.580;-1.666;2022-09-29T00:43:03;10.70;97.00
33988;DHT22;37428;53.580;-1.666;2022-09-29T00:46:05;10.60;97.50
33988;DHT22;37428;53.580;-1.666;2022-09-29T00:49:14;10.70;97.90
33988;DHT22;37428;53.580;-1.666;2022-09-29T00:52:25;10.60;97.60
33988;DHT22;37428;53.580;-1.666;2022-09-29T00:55:35;10.60;97.90
33988;DHT22;37428;53.580;-1.666;2022-09-29T00:58:42;10.50;98.40
33988;DHT22;37428;53.580;-1.666;2022-09-29T01:01:46;10.50;98.50
33988;DHT22;37428;53.580;-1.666;2022-09-29T01:04:50;10.40;99.10
33988;DHT22;37428;53.580;-1.666;2022-09-29T01:07:53;10.50;99.30
33988;DHT22;37428;53.580;-1.666;2022-09-29T01:10:59;10.50;99.50
33988;DHT22;37428;53.580;-1.666;2022-09-29T01:14:05;10.50;99.90
33988;DHT22;37428;53.580;-1.666;2022-09-29T01:17:08;10.40;99.90
33988;DHT22;37428;53.580;-1.666;2022-09-29T01:20:12;10.50;99.90
33988;DHT22;37428;53.580;-1.666;2022-09-29T01:23:47;10.40;99.90
33988;DHT22;37428;53.580;-1.666;2022-09-29T01:27:06;10.40;99.90
33988;DHT22;37428;53.580;-1.666;2022-09-29T01:30:17;10.40;99.90
33988;DHT22;37428;53.580;-1.666;2022-09-29T01:33:31;10.40;99.90
33988;DHT22;37428;53.580;-1.666;2022-09-29T01:36:43;10.40;99.90
33988;DHT22;37428;53.580;-1.666;2022-09-29T01:39:58;10.40;99.90
33988;DHT22;37428;53.580;-1.666;2022-09-29T01:43:08;10.40;99.90
33988;DHT22;37428;53.580;-1.666;2022-09-29T01:46:13;10.50;99.90
33988;DHT22;37428;53.580;-1.666;2022-09-29T01:49:20;10.50;99.90
33988;DHT22;37428;53.580;-1.666;2022-09-29T01:52:26;10.50;99.90
33988;DHT22;37428;53.580;-1.666;2022-09-29T01:55:31;10.60;99.90
33988;DHT22;37428;53.580;-1.666;2022-09-29T01:58:38;10.60;99.90
33988;DHT22;37428;53.580;-1.666;2022-09-29T02:01:44;10.60;99.90
33988;DHT22;37428;53.580;-1.666;2022-09-29T02:04:53;10.60;99.90
33988;DHT22;37428;53.580;-1.666;2022-09-29T02:08:01;10.60;99.90
33988;DHT22;37428;53.580;-1.666;2022-09-29T02:11:09;10.60;99.90
33988;DHT22;37428;53.580;-1.666;2022-09-29T02:14:15;10.60;99.90
33988;DHT22;37428;53.580;-1.666;2022-09-29T02:17:21;10.60;99.90
33988;DHT22;37428;53.580;-1.666;2022-09-29T02:20:26;10.60;99.90
33988;DHT22;37428;53.580;-1.666;2022-09-29T02:23:32;10.60;99.90
33988;DHT22;37428;53.580;-1.666;2022-09-29T02:26:34;10.60;99.90
33988;DHT22;37428;53.580;-1.666;2022-09-29T02:29:37;10.60;99.90
33988;DHT22;37428;53.580;-1.666;2022-09-29T02:32:40;10.60;99.90
33988;DHT22;37428;53.580;-1.666;2022-09-29T02:35:47;10.60;99.90
33988;DHT22;37428;53.580;-1.666;2022-09-29T02:38:55;10.60;99.90
33988;DHT22;37428;53.580;-1.666;2022-09-29T02:42:10;10.50;99.90
33988;DHT22;37428;53.580;-1.666;2022-09-29T02:45:22;10.50;99.90
33988;DHT22;37428;53.580;-1.666;2022-09-29T02:48:42;10.50;99.90
33988;DHT22;37428;53.580;-1.666;2022-09-29T02:51:51;10.60;99.90
33988;DHT22;37428;53.580;-1.666;2022-09-29T02:55:01;10.60;99.90
33988;DHT22;37428;53.580;-1.666;2022-09-29T02:58:14;10.50;99.90
33988;DHT22;37428;53.580;-1.666;2022-09-29T03:01:19;10.50;99.90
33988;DHT22;37428;53.580;-1.666;2022-09-29T03:04:22;10.50;99.90
33988;DHT22;37428;53.580;-1.666;2022-09-29T03:07:26;10.50;99.90
33988;DHT22;37428;53.580;-1.666;2022-09-29T03:10:28;10.50;99.90
33988;DHT22;37428;53.580;-1.666;2022-09-29T03:13:30;10.50;99.90
33988;DHT22;37428;53.580;-1.666;2022-09-29T03:16:33;10.50;99.90
33988;DHT22;37428;53.580;-1.666;2022-09-29T03:19:36;10.50;99.90
33988;DHT22;37428;53.580;-1.666;2022-09-29T03:22:40;10.50;99.90
33988;DHT22;37428;53.580;-1.666;2022-09-29T03:25:42;10.50;99.90
33988;DHT22;37428;53.580;-1.666;2022-09-29T03:28:46;10.50;99.90
33988;DHT22;37428;53.580;-1.666;2022-09-29T03:31:48;10.50;99.90
33988;DHT22;37428;53.580;-1.666;2022-09-29T03:34:50;10.40;99.90
33988;DHT22;37428;53.580;-1.666;2022-09-29T03:37:59;10.40;99.90
33988;DHT22;37428;53.580;-1.666;2022-09-29T03:41:04;10.30;99.90
33988;DHT22;37428;53.580;-1.666;2022-09-29T03:44:07;10.30;99.90
33988;DHT22;37428;53.580;-1.666;2022-09-29T03:47:09;10.30;99.90
33988;DHT22;37428;53.580;-1.666;2022-09-29T03:50:13;10.40;99.90
33988;DHT22;37428;53.580;-1.666;2022-09-29T03:53:17;10.40;99.90
33988;DHT22;37428;53.580;-1.666;2022-09-29T03:56:25;10.40;99.90
33988;DHT22;37428;53.580;-1.666;2022-09-29T03:59:28;10.40;99.90
33988;DHT22;37428;53.580;-1.666;2022-09-29T04:02:31;10.40;99.90
33988;DHT22;37428;53.580;-1.666;2022-09-29T04:05:35;10.30;99.90
33988;DHT22;37428;53.580;-1.666;2022-09-29T04:08:39;10.40;99.90
33988;DHT22;37428;53.580;-1.666;2022-09-29T04:11:42;10.30;99.90
33988;DHT22;37428;53.580;-1.666;2022-09-29T04:14:44;10.30;99.90
33988;DHT22;37428;53.580;-1.666;2022-09-29T04:17:46;10.30;99.90
33988;DHT22;37428;53.580;-1.666;2022-09-29T04:20:48;10.30;99.90
33988;DHT22;37428;53.580;-1.666;2022-09-29T04:23:53;10.30;99.90
33988;DHT22;37428;53.580;-1.666;2022-09-29T04:26:55;10.40;99.90
33988;DHT22;37428;53.580;-1.666;2022-09-29T04:29:57;10.30;99.90
33988;DHT22;37428;53.580;-1.666;2022-09-29T04:32:59;10.30;99.90
33988;DHT22;37428;53.580;-1.666;2022-09-29T04:36:02;10.30;99.90
33988;DHT22;37428;53.580;-1.666;2022-09-29T04:39:06;10.30;99.90
33988;DHT22;37428;53.580;-1.666;2022-09-29T04:42:08;10.30;99.90
33988;DHT22;37428;53.580;-1.666;2022-09-29T04:45:12;10.30;99.90
33988;DHT22;37428;53.580;-1.666;2022-09-29T04:48:14;10.30;99.90
33988;DHT22;37428;53.580;-1.666;2022-09-29T04:51:16;10.30;99.90
33988;DHT22;37428;53.580;-1.666;2022-09-29T04:54:20;10.20;99.90
33988;DHT22;37428;53.580;-1.666;2022-09-29T04:57:22;10.30;99.90
33988;DHT22;37428;53.580;-1.666;2022-09-29T05:00:24;10.20;99.90
33988;DHT22;37428;53.580;-1.666;2022-09-29T05:03:26;10.30;99.90
33988;DHT22;37428;53.580;-1.666;2022-09-29T05:06:28;10.30;99.90
33988;DHT22;37428;53.580;-1.666;2022-09-29T05:09:36;10.30;99.90
33988;DHT22;37428;53.580;-1.666;2022-09-29T05:12:39;10.30;99.90
33988;DHT22;37428;53.580;-1.666;2022-09-29T05:15:41;10.20;99.90
33988;DHT22;37428;53.580;-1.666;2022-09-29T05:18:43;10.20;99.90
33988;DHT22;37428;53.580;-1.666;2022-09-29T05:21:46;10.10;99.90
33988;DHT22;37428;53.580;-1.666;2022-09-29T05:24:50;10.10;99.90
33988;DHT22;37428;53.580;-1.666;2022-09-29T05:27:52;10.20;99.90
33988;DHT22;37428;53.580;-1.666;2022-09-29T05:30:54;10.10;99.90
33988;DHT22;37428;53.580;-1.666;2022-09-29T05:33:56;10.10;99.90
33988;DHT22;37428;53.580;-1.666;2022-09-29T05:36:58;10.10;99.90
33988;DHT22;37428;53.580;-1.666;2022-09-29T05:40:02;10.10;99.90
33988;DHT22;37428;53.580;-1.666;2022-09-29T05:43:04;10.10;99.90
33988;DHT22;37428;53.580;-1.666;2022-09-29T05:46:08;10.10;99.90
33988;DHT22;37428;53.580;-1.666;2022-09-29T05:49:11;10.10;99.90
33988;DHT22;37428;53.580;-1.666;2022-09-29T05:52:13;10.10;99.90
33988;DHT22;37428;53.580;-1.666;2022-09-29T05:55:17;10.00;99.90
33988;DHT22;37428;53.580;-1.666;2022-09-29T05:58:21;10.00;99.90
33988;DHT22;37428;53.580;-1.666;2022-09-29T06:01:24;10.00;99.90
33988;DHT22;37428;53.580;-1.666;2022-09-29T06:04:27;10.00;99.90
33988;DHT22;37428;53.580;-1.666;2022-09-29T06:07:31;10.00;99.90
33988;DHT22;37428;53.580;-1.666;2022-09-29T06:10:35;9.90;99.90
33988;DHT22;37428;53.580;-1.666;2022-09-29T06:13:37;9.90;99.90
33988;DHT22;37428;53.580;-1.666;2022-09-29T06:16:40;9.90;99.90
33988;DHT22;37428;53.580;-1.666;2022-09-29T06:19:45;9.90;99.90
33988;DHT22;37428;53.580;-1.666;2022-09-29T06:22:48;9.90;99.90
33988;DHT22;37428;53.580;-1.666;2022-09-29T06:25:56;9.80;99.90
33988;DHT22;37428;53.580;-1.666;2022-09-29T06:28:58;9.80;99.90
33988;DHT22;37428;53.580;-1.666;2022-09-29T06:32:03;9.90;99.90
33988;DHT22;37428;53.580;-1.666;2022-09-29T06:35:07;9.80;99.90
33988;DHT22;37428;53.580;-1.666;2022-09-29T06:38:27;9.80;99.90
33988;DHT22;37428;53.580;-1.666;2022-09-29T06:41:30;9.90;99.90
33988;DHT22;37428;53.580;-1.666;2022-09-29T06:44:33;9.80;99.90
33988;DHT22;37428;53.580;-1.666;2022-09-29T06:47:36;9.80;99.90
33988;DHT22;37428;53.580;-1.666;2022-09-29T06:50:38;9.80;99.90
33988;DHT22;37428;53.580;-1.666;2022-09-29T06:53:40;9.90;99.90
33988;DHT22;37428;53.580;-1.666;2022-09-29T06:56:47;9.90;99.90
33988;DHT22;37428;53.580;-1.666;2022-09-29T06:59:49;9.90;99.90
33988;DHT22;37428;53.580;-1.666;2022-09-29T07:02:52;9.90;99.90
33988;DHT22;37428;53.580;-1.666;2022-09-29T07:05:54;10.00;99.90
33988;DHT22;37428;53.580;-1.666;2022-09-29T07:08:57;10.00;99.90
33988;DHT22;37428;53.580;-1.666;2022-09-29T07:12:03;10.00;99.90
33988;DHT22;37428;53.580;-1.666;2022-09-29T07:15:08;10.00;99.90
33988;DHT22;37428;53.580;-1.666;2022-09-29T07:18:12;10.10;99.90
33988;DHT22;37428;53.580;-1.666;2022-09-29T07:21:15;10.00;99.90
33988;DHT22;37428;53.580;-1.666;2022-09-29T07:24:20;10.10;99.90
33988;DHT22;37428;53.580;-1.666;2022-09-29T07:27:28;10.10;99.90
33988;DHT22;37428;53.580;-1.666;2022-09-29T07:30:33;10.20;99.90
33988;DHT22;37428;53.580;-1.666;2022-09-29T07:33:37;10.50;99.90
33988;DHT22;37428;53.580;-1.666;2022-09-29T07:36:42;10.70;99.90
33988;DHT22;37428;53.580;-1.666;2022-09-29T07:39:44;11.00;98.20
33988;DHT22;37428;53.580;-1.666;2022-09-29T07:43:03;11.30;97.00
33988;DHT22;37428;53.580;-1.666;2022-09-29T07:46:10;11.50;95.70
33988;DHT22;37428;53.580;-1.666;2022-09-29T07:49:29;11.90;94.00
33988;DHT22;37428;53.580;-1.666;2022-09-29T07:52:32;12.10;92.30
33988;DHT22;37428;53.580;-1.666;2022-09-29T07:55:35;12.30;90.80
33988;DHT22;37428;53.580;-1.666;2022-09-29T07:58:43;12.30;90.40
33988;DHT22;37428;53.580;-1.666;2022-09-29T08:01:45;12.50;90.50
33988;DHT22;37428;53.580;-1.666;2022-09-29T08:04:53;12.50;89.70
33988;DHT22;37428;53.580;-1.666;2022-09-29T08:07:55;12.50;89.90
33988;DHT22;37428;53.580;-1.666;2022-09-29T08:11:03;12.40;90.00
33988;DHT22;37428;53.580;-1.666;2022-09-29T08:14:21;12.50;90.10
33988;DHT22;37428;53.580;-1.666;2022-09-29T08:17:23;12.50;89.20
33988;DHT22;37428;53.580;-1.666;2022-09-29T08:20:27;12.30;89.50
33988;DHT22;37428;53.580;-1.666;2022-09-29T08:23:35;12.30;90.10
33988;DHT22;37428;53.580;-1.666;2022-09-29T08:26:52;12.50;89.90
33988;DHT22;37428;53.580;-1.666;2022-09-29T08:29:56;12.60;88.30
33988;DHT22;37428;53.580;-1.666;2022-09-29T08:33:10;12.70;88.50
33988;DHT22;37428;53.580;-1.666;2022-09-29T08:36:22;12.80;88.30
33988;DHT22;37428;53.580;-1.666;2022-09-29T08:39:44;12.90;88.00
33988;DHT22;37428;53.580;-1.666;2022-09-29T08:42:56;12.80;87.60
33988;DHT22;37428;53.580;-1.666;2022-09-29T08:46:22;12.80;87.30
33988;DHT22;37428;53.580;-1.666;2022-09-29T08:49:30;12.80;87.00
33988;DHT22;37428;53.580;-1.666;2022-09-29T08:52:40;12.80;87.40
33988;DHT22;37428;53.580;-1.666;2022-09-29T08:55:59;12.80;86.00
33988;DHT22;37428;53.580;-1.666;2022-09-29T08:59:03;12.90;87.90
33988;DHT22;37428;53.580;-1.666;2022-09-29T09:06:24;12.90;88.50
33988;DHT22;37428;53.580;-1.666;2022-09-29T09:09:49;12.80;87.90
33988;DHT22;37428;53.580;-1.666;2022-09-29T09:13:13;12.90;89.00
33988;DHT22;37428;53.580;-1.666;2022-09-29T09:16:27;12.80;87.60
33988;DHT22;37428;53.580;-1.666;2022-09-29T09:23:31;12.90;88.50
33988;DHT22;37428;53.580;-1.666;2022-09-29T09:26:44;12.90;88.40
33988;DHT22;37428;53.580;-1.666;2022-09-29T09:29:47;13.00;88.20
33988;DHT22;37428;53.580;-1.666;2022-09-29T09:32:56;13.00;87.10
33988;DHT22;37428;53.580;-1.666;2022-09-29T09:36:04;13.10;87.30
33988;DHT22;37428;53.580;-1.666;2022-09-29T09:39:18;13.10;87.00
33988;DHT22;37428;53.580;-1.666;2022-09-29T09:42:24;13.20;87.50
33988;DHT22;37428;53.580;-1.666;2022-09-29T09:45:33;13.30;86.20
33988;DHT22;37428;53.580;-1.666;2022-09-29T09:48:43;13.20;87.10
33988;DHT22;37428;53.580;-1.666;2022-09-29T09:51:53;13.20;88.10
33988;DHT22;37428;53.580;-1.666;2022-09-29T09:54:59;13.30;87.80
33988;DHT22;37428;53.580;-1.666;2022-09-29T09:58:29;13.20;88.10
33988;DHT22;37428;53.580;-1.666;2022-09-29T10:01:34;13.30;88.30
33988;DHT22;37428;53.580;-1.666;2022-09-29T10:04:43;13.30;88.70
33988;DHT22;37428;53.580;-1.666;2022-09-29T10:07:49;13.30;88.40
33988;DHT22;37428;53.580;-1.666;2022-09-29T10:10:58;13.40;88.20
33988;DHT22;37428;53.580;-1.666;2022-09-29T10:14:10;13.40;87.90
33988;DHT22;37428;53.580;-1.666;2022-09-29T10:17:16;13.30;88.50
33988;DHT22;37428;53.580;-1.666;2022-09-29T10:20:41;13.40;88.20
33988;DHT22;37428;53.580;-1.666;2022-09-29T10:23:50;13.40;87.60
33988;DHT22;37428;53.580;-1.666;2022-09-29T10:26:56;13.50;87.90
33988;DHT22;37428;53.580;-1.666;2022-09-29T10:30:18;13.60;87.70
33988;DHT22;37428;53.580;-1.666;2022-09-29T10:33:39;13.40;86.70
33988;DHT22;37428;53.580;-1.666;2022-09-29T10:36:49;13.50;86.90
33988;DHT22;37428;53.580;-1.666;2022-09-29T10:40:03;13.50;87.20
33988;DHT22;37428;53.580;-1.666;2022-09-29T10:43:22;13.60;86.70
33988;DHT22;37428;53.580;-1.666;2022-09-29T10:46:46;13.70;86.90
33988;DHT22;37428;53.580;-1.666;2022-09-29T10:50:08;13.80;85.30
33988;DHT22;37428;53.580;-1.666;2022-09-29T10:53:30;13.90;84.40
33988;DHT22;37428;53.580;-1.666;2022-09-29T10:56:45;14.20;83.20
33988;DHT22;37428;53.580;-1.666;2022-09-29T10:59:51;14.50;83.50
33988;DHT22;37428;53.580;-1.666;2022-09-29T11:03:00;14.50;81.80
33988;DHT22;37428;53.580;-1.666;2022-09-29T11:06:10;14.50;81.30
33988;DHT22;37428;53.580;-1.666;2022-09-29T11:09:29;14.20;81.70
33988;DHT22;37428;53.580;-1.666;2022-09-29T11:12:36;14.10;83.50
33988;DHT22;37428;53.580;-1.666;2022-09-29T11:15:43;13.90;84.70
33988;DHT22;37428;53.580;-1.666;2022-09-29T11:19:02;13.70;87.00
33988;DHT22;37428;53.580;-1.666;2022-09-29T11:22:41;13.60;88.20
33988;DHT22;37428;53.580;-1.666;2022-09-29T11:26:09;13.60;88.80
33988;DHT22;37428;53.580;-1.666;2022-09-29T11:29:26;13.70;89.70
33988;DHT22;37428;53.580;-1.666;2022-09-29T11:32:42;13.80;91.40
33988;DHT22;37428;53.580;-1.666;2022-09-29T11:35:53;14.00;90.40
33988;DHT22;37428;53.580;-1.666;2022-09-29T11:39:11;14.00;90.90
33988;DHT22;37428;53.580;-1.666;2022-09-29T11:42:27;14.30;89.60
33988;DHT22;37428;53.580;-1.666;2022-09-29T11:45:37;14.50;87.90
33988;DHT22;37428;53.580;-1.666;2022-09-29T11:49:07;14.70;86.40
33988;DHT22;37428;53.580;-1.666;2022-09-29T11:52:31;14.90;87.80
33988;DHT22;37428;53.580;-1.666;2022-09-29T11:55:57;14.70;87.50
33988;DHT22;37428;53.580;-1.666;2022-09-29T11:59:31;14.50;89.10
33988;DHT22;37428;53.580;-1.666;2022-09-29T12:03:13;14.20;90.30
33988;DHT22;37428;53.580;-1.666;2022-09-29T12:10:01;14.00;89.90
33988;DHT22;37428;53.580;-1.666;2022-09-29T12:13:17;13.90;89.10
33988;DHT22;37428;53.580;-1.666;2022-09-29T12:16:26;13.80;89.90
33988;DHT22;37428;53.580;-1.666;2022-09-29T12:19:36;13.90;90.30
33988;DHT22;37428;53.580;-1.666;2022-09-29T12:22:47;14.20;91.10
33988;DHT22;37428;53.580;-1.666;2022-09-29T12:25:59;14.40;88.50
33988;DHT22;37428;53.580;-1.666;2022-09-29T12:29:06;14.40;88.20
33988;DHT22;37428;53.580;-1.666;2022-09-29T12:32:15;14.40;85.90
33988;DHT22;37428;53.580;-1.666;2022-09-29T12:35:27;14.30;83.90
33988;DHT22;37428;53.580;-1.666;2022-09-29T12:38:38;14.40;85.10
33988;DHT22;37428;53.580;-1.666;2022-09-29T12:41:50;14.40;83.10
33988;DHT22;37428;53.580;-1.666;2022-09-29T12:45:00;14.90;85.10
33988;DHT22;37428;53.580;-1.666;2022-09-29T12:48:14;15.60;82.20
33988;DHT22;37428;53.580;-1.666;2022-09-29T12:51:23;16.00;79.10
33988;DHT22;37428;53.580;-1.666;2022-09-29T12:54:34;16.20;77.30
33988;DHT22;37428;53.580;-1.666;2022-09-29T12:57:40;16.20;76.60
33988;DHT22;37428;53.580;-1.666;2022-09-29T13:00:48;16.20;75.70
33988;DHT22;37428;53.580;-1.666;2022-09-29T13:04:17;16.40;75.30
33988;DHT22;37428;53.580;-1.666;2022-09-29T13:11:13;15.90;75.80
33988;DHT22;37428;53.580;-1.666;2022-09-29T13:14:36;15.50;79.50
33988;DHT22;37428;53.580;-1.666;2022-09-29T13:17:54;15.10;78.10
33988;DHT22;37428;53.580;-1.666;2022-09-29T13:21:03;14.90;80.60
33988;DHT22;37428;53.580;-1.666;2022-09-29T13:27:47;14.70;82.20
33988;DHT22;37428;53.580;-1.666;2022-09-29T13:30:59;14.60;83.80
33988;DHT22;37428;53.580;-1.666;2022-09-29T13:34:06;14.50;81.80
33988;DHT22;37428;53.580;-1.666;2022-09-29T13:37:20;15.10;80.70
33988;DHT22;37428;53.580;-1.666;2022-09-29T13:40:25;15.30;80.70
33988;DHT22;37428;53.580;-1.666;2022-09-29T13:43:39;15.40;80.00
33988;DHT22;37428;53.580;-1.666;2022-09-29T13:47:29;15.50;79.30
33988;DHT22;37428;53.580;-1.666;2022-09-29T13:50:42;15.70;79.70
33988;DHT22;37428;53.580;-1.666;2022-09-29T13:53:45;15.60;77.50
33988;DHT22;37428;53.580;-1.666;2022-09-29T13:56:48;15.50;79.10
33988;DHT22;37428;53.580;-1.666;2022-09-29T14:03:27;15.80;78.70
33988;DHT22;37428;53.580;-1.666;2022-09-29T14:06:43;16.00;77.00
33988;DHT22;37428;53.580;-1.666;2022-09-29T14:09:48;16.40;77.80
33988;DHT22;37428;53.580;-1.666;2022-09-29T14:12:54;16.90;75.30
33988;DHT22;37428;53.580;-1.666;2022-09-29T14:16:26;17.00;72.90
33988;DHT22;37428;53.580;-1.666;2022-09-29T14:19:38;16.90;72.80
33988;DHT22;37428;53.580;-1.666;2022-09-29T14:22:55;16.60;72.10
33988;DHT22;37428;53.580;-1.666;2022-09-29T14:25:58;16.50;74.90
33988;DHT22;37428;53.580;-1.666;2022-09-29T14:29:01;16.10;76.30
33988;DHT22;37428;53.580;-1.666;2022-09-29T14:32:16;15.60;78.00
33988;DHT22;37428;53.580;-1.666;2022-09-29T14:35:24;15.20;80.20
33988;DHT22;37428;53.580;-1.666;2022-09-29T14:38:31;14.90;81.30
33988;DHT22;37428;53.580;-1.666;2022-09-29T14:41:40;14.60;83.20
33988;DHT22;37428;53.580;-1.666;2022-09-29T14:44:42;14.40;84.20
33988;DHT22;37428;53.580;-1.666;2022-09-29T14:48:09;14.30;85.50
33988;DHT22;37428;53.580;-1.666;2022-09-29T14:51:53;14.20;85.80
33988;DHT22;37428;53.580;-1.666;2022-09-29T14:55:07;14.40;85.70
33988;DHT22;37428;53.580;-1.666;2022-09-29T14:58:30;14.90;85.20
33988;DHT22;37428;53.580;-1.666;2022-09-29T15:01:35;15.00;83.00
33988;DHT22;37428;53.580;-1.666;2022-09-29T15:04:43;15.00;79.20
33988;DHT22;37428;53.580;-1.666;2022-09-29T15:07:46;15.10;77.70
33988;DHT22;37428;53.580;-1.666;2022-09-29T15:10:49;15.30;77.20
33988;DHT22;37428;53.580;-1.666;2022-09-29T15:13:52;15.50;77.90
33988;DHT22;37428;53.580;-1.666;2022-09-29T15:17:16;15.80;77.30
33988;DHT22;37428;53.580;-1.666;2022-09-29T15:20:24;15.90;76.10
33988;DHT22;37428;53.580;-1.666;2022-09-29T15:23:42;16.10;75.00
33988;DHT22;37428;53.580;-1.666;2022-09-29T15:26:50;16.10;74.10
33988;DHT22;37428;53.580;-1.666;2022-09-29T15:29:56;16.20;74.30
33988;DHT22;37428;53.580;-1.666;2022-09-29T15:33:13;16.20;74.40
33988;DHT22;37428;53.580;-1.666;2022-09-29T15:36:21;15.90;74.30
33988;DHT22;37428;53.580;-1.666;2022-09-29T15:39:48;15.70;73.90
33988;DHT22;37428;53.580;-1.666;2022-09-29T15:42:53;15.30;76.90
33988;DHT22;37428;53.580;-1.666;2022-09-29T15:46:00;14.90;78.70
33988;DHT22;37428;53.580;-1.666;2022-09-29T15:49:13;14.60;79.60
33988;DHT22;37428;53.580;-1.666;2022-09-29T15:52:30;14.50;81.30
33988;DHT22;37428;53.580;-1.666;2022-09-29T15:55:44;14.30;80.40
33988;DHT22;37428;53.580;-1.666;2022-09-29T15:58:48;14.20;82.00
33988;DHT22;37428;53.580;-1.666;2022-09-29T16:01:51;14.10;81.30
33988;DHT22;37428;53.580;-1.666;2022-09-29T16:05:03;14.20;82.90
33988;DHT22;37428;53.580;-1.666;2022-09-29T16:08:14;14.10;83.90
33988;DHT22;37428;53.580;-1.666;2022-09-29T16:11:24;14.10;84.20
33988;DHT22;37428;53.580;-1.666;2022-09-29T16:14:40;14.20;84.90
33988;DHT22;37428;53.580;-1.666;2022-09-29T16:17:57;14.30;85.30
33988;DHT22;37428;53.580;-1.666;2022-09-29T16:21:05;14.30;85.60
33988;DHT22;37428;53.580;-1.666;2022-09-29T16:24:14;14.30;87.10
33988;DHT22;37428;53.580;-1.666;2022-09-29T16:27:37;14.30;88.00
33988;DHT22;37428;53.580;-1.666;2022-09-29T16:30:59;14.30;87.50
33988;DHT22;37428;53.580;-1.666;2022-09-29T16:34:02;14.30;88.60
33988;DHT22;37428;53.580;-1.666;2022-09-29T16:37:05;14.30;87.70
33988;DHT22;37428;53.580;-1.666;2022-09-29T16:40:18;14.20;87.90
33988;DHT22;37428;53.580;-1.666;2022-09-29T16:43:32;14.20;88.10
33988;DHT22;37428;53.580;-1.666;2022-09-29T16:46:41;14.20;88.20
33988;DHT22;37428;53.580;-1.666;2022-09-29T16:49:53;14.30;87.70
33988;DHT22;37428;53.580;-1.666;2022-09-29T16:52:56;14.40;88.60
33988;DHT22;37428;53.580;-1.666;2022-09-29T16:56:02;14.40;87.40
33988;DHT22;37428;53.580;-1.666;2022-09-29T16:59:09;14.40;88.40
33988;DHT22;37428;53.580;-1.666;2022-09-29T17:02:13;14.30;89.10
33988;DHT22;37428;53.580;-1.666;2022-09-29T17:05:15;14.10;88.60
33988;DHT22;37428;53.580;-1.666;2022-09-29T17:08:20;13.90;88.80
33988;DHT22;37428;53.580;-1.666;2022-09-29T17:11:24;13.60;89.90
33988;DHT22;37428;53.580;-1.666;2022-09-29T17:14:27;13.40;90.50
33988;DHT22;37428;53.580;-1.666;2022-09-29T17:17:33;13.30;91.60
33988;DHT22;37428;53.580;-1.666;2022-09-29T17:20:36;13.20;92.40
33988;DHT22;37428;53.580;-1.666;2022-09-29T17:23:38;13.10;92.30
33988;DHT22;37428;53.580;-1.666;2022-09-29T17:26:43;13.00;92.40
33988;DHT22;37428;53.580;-1.666;2022-09-29T17:30:03;13.00;92.40
33988;DHT22;37428;53.580;-1.666;2022-09-29T17:33:11;12.90;91.90
33988;DHT22;37428;53.580;-1.666;2022-09-29T17:36:15;13.00;93.20
33988;DHT22;37428;53.580;-1.666;2022-09-29T17:39:17;13.00;93.90
33988;DHT22;37428;53.580;-1.666;2022-09-29T17:42:28;13.10;93.90
33988;DHT22;37428;53.580;-1.666;2022-09-29T17:45:32;13.10;93.90
33988;DHT22;37428;53.580;-1.666;2022-09-29T17:48:37;13.10;93.70
33988;DHT22;37428;53.580;-1.666;2022-09-29T17:51:43;13.10;93.00
33988;DHT22;37428;53.580;-1.666;2022-09-29T17:54:47;13.10;93.50
33988;DHT22;37428;53.580;-1.666;2022-09-29T17:57:57;13.10;93.30
33988;DHT22;37428;53.580;-1.666;2022-09-29T18:01:09;13.10;93.60
33988;DHT22;37428;53.580;-1.666;2022-09-29T18:04:11;13.10;93.30
33988;DHT22;37428;53.580;-1.666;2022-09-29T18:07:13;13.10;93.10
33988;DHT22;37428;53.580;-1.666;2022-09-29T18:10:33;13.00;93.30
33988;DHT22;37428;53.580;-1.666;2022-09-29T18:13:42;12.90;93.20
33988;DHT22;37428;53.580;-1.666;2022-09-29T18:16:49;12.90;93.40
33988;DHT22;37428;53.580;-1.666;2022-09-29T18:20:21;12.80;93.30
33988;DHT22;37428;53.580;-1.666;2022-09-29T18:23:25;12.80;93.50
33988;DHT22;37428;53.580;-1.666;2022-09-29T18:26:28;12.70;93.40
33988;DHT22;37428;53.580;-1.666;2022-09-29T18:29:31;12.70;93.20
33988;DHT22;37428;53.580;-1.666;2022-09-29T18:32:33;12.60;93.00
33988;DHT22;37428;53.580;-1.666;2022-09-29T18:35:35;12.60;93.30
33988;DHT22;37428;53.580;-1.666;2022-09-29T18:38:38;12.50;93.30
33988;DHT22;37428;53.580;-1.666;2022-09-29T18:41:40;12.50;92.60
33988;DHT22;37428;53.580;-1.666;2022-09-29T18:44:52;12.40;92.20
33988;DHT22;37428;53.580;-1.666;2022-09-29T18:47:58;12.40;93.10
33988;DHT22;37428;53.580;-1.666;2022-09-29T18:51:04;12.40;93.20
33988;DHT22;37428;53.580;-1.666;2022-09-29T18:54:08;12.30;92.70
33988;DHT22;37428;53.580;-1.666;2022-09-29T18:57:13;12.30;92.30
33988;DHT22;37428;53.580;-1.666;2022-09-29T19:00:18;12.20;92.60
33988;DHT22;37428;53.580;-1.666;2022-09-29T19:03:21;12.10;93.00
33988;DHT22;37428;53.580;-1.666;2022-09-29T19:06:30;12.10;93.00
33988;DHT22;37428;53.580;-1.666;2022-09-29T19:09:35;12.00;92.10
33988;DHT22;37428;53.580;-1.666;2022-09-29T19:12:38;11.90;91.70
33988;DHT22;37428;53.580;-1.666;2022-09-29T19:15:54;11.80;90.10
33988;DHT22;37428;53.580;-1.666;2022-09-29T19:18:56;11.90;91.10
33988;DHT22;37428;53.580;-1.666;2022-09-29T19:22:02;11.80;91.10
33988;DHT22;37428;53.580;-1.666;2022-09-29T19:25:15;11.80;91.60
33988;DHT22;37428;53.580;-1.666;2022-09-29T19:28:28;11.80;92.20
33988;DHT22;37428;53.580;-1.666;2022-09-29T19:31:35;11.80;92.10
33988;DHT22;37428;53.580;-1.666;2022-09-29T19:34:38;11.90;91.70
33988;DHT22;37428;53.580;-1.666;2022-09-29T19:37:42;11.70;90.90
33988;DHT22;37428;53.580;-1.666;2022-09-29T19:40:46;11.70;91.50
33988;DHT22;37428;53.580;-1.666;2022-09-29T19:43:49;11.70;91.60
33988;DHT22;37428;53.580;-1.666;2022-09-29T19:47:01;11.60;91.80
33988;DHT22;37428;53.580;-1.666;2022-09-29T19:50:04;11.60;91.60
33988;DHT22;37428;53.580;-1.666;2022-09-29T19:53:24;11.50;92.10
33988;DHT22;37428;53.580;-1.666;2022-09-29T19:56:28;11.50;91.80